sensor_id;sensor_type;location;lat;lon;timestamp;temperature;humidity
3086;DHT22;52812;48.960;9.108;2023-05-23T00:01:41;16.30;99.90
3086;DHT22;52812;48.960;9.108;2023-05-23T00:04:08;16.30;99.90
3086;DHT22;52812;48.960;9.108;2023-05-23T00:06:34;16.20;99.90
3086;DHT22;52812;48.960;9.108;2023-05-23T00:09:00;16.30;99.90
3086;DHT22;52812;48.960;9.108;2023-05-23T00:11:26;16.30;99.90
3086;DHT22;52812;48.960;9.108;2023-05-23T00:13:53;16.30;99.90
3086;DHT22;52812;48.960;9.108;2023-05-23T00:16:19;16.20;99.90
3086;DHT22;52812;48.960;9.108;2023-05-23T00:18:46;16.20;99.90
3086;DHT22;52812;48.960;9.108;2023-05-23T00:21:11;16.20;99.90
3086;DHT22;52812;48.960;9.108;2023-05-23T00:23:38;16.20;99.90
3086;DHT22;52812;48.960;9.108;2023-05-23T00:26:07;16.20;99.90
3086;DHT22;52812;48.960;9.108;2023-05-23T00:28:32;16.20;99.90
3086;DHT22;52812;48.960;9.108;2023-05-23T00:30:58;16.10;99.90
3086;DHT22;52812;48.960;9.108;2023-05-23T00:33:23;16.10;99.90
3086;DHT22;52812;48.960;9.108;2023-05-23T00:35:49;16.10;99.90
3086;DHT22;52812;48.960;9.108;2023-05-23T00:38:15;16.10;99.90
3086;DHT22;52812;48.960;9.108;2023-05-23T00:40:41;16.00;99.90
3086;DHT22;52812;48.960;9.108;2023-05-23T00:43:06;16.00;99.90
3086;DHT22;52812;48.960;9.108;2023-05-23T00:45:35;16.00;99.90
3086;DHT22;52812;48.960;9.108;2023-05-23T00:48:01;15.90;99.90
3086;DHT22;52812;48.960;9.108;2023-05-23T00:50:28;16.00;99.90
3086;DHT22;52812;48.960;9.108;2023-05-23T00:52:55;16.00;99.90
3086;DHT22;52812;48.960;9.108;2023-05-23T00:55:22;16.00;99.90
3086;DHT22;52812;48.960;9.108;2023-05-23T00:57:49;16.00;99.90
3086;DHT22;52812;48.960;9.108;2023-05-23T01:00:16;16.00;99.90
3086;DHT22;52812;48.960;9.108;2023-05-23T01:02:45;15.90;99.90
3086;DHT22;52812;48.960;9.108;2023-05-23T01:05:13;16.00;99.90
3086;DHT22;52812;48.960;9.108;2023-05-23T01:07:45;16.00;99.90
3086;DHT22;52812;48.960;9.108;2023-05-23T01:10:12;15.90;99.90
3086;DHT22;52812;48.960;9.108;2023-05-23T01:18:09;16.00;99.90
3086;DHT22;52812;48.960;9.108;2023-05-23T01:20:56;16.00;99.90
3086;DHT22;52812;48.960;9.108;2023-05-23T01:28:51;16.10;99.90
3086;DHT22;52812;48.960;9.108;2023-05-23T01:31:19;16.10;99.90
3086;DHT22;52812;48.960;9.108;2023-05-23T01:33:48;16.10;99.90
3086;DHT22;52812;48.960;9.108;2023-05-23T01:36:14;16.10;99.90
3086;DHT22;52812;48.960;9.108;2023-05-23T01:38:40;16.20;99.90
3086;DHT22;52812;48.960;9.108;2023-05-23T01:41:06;16.20;99.90
3086;DHT22;52812;48.960;9.108;2023-05-23T01:43:31;16.20;99.90
3086;DHT22;52812;48.960;9.108;2023-05-23T01:45:58;16.20;99.90
3086;DHT22;52812;48.960;9.108;2023-05-23T01:48:25;16.10;99.90
3086;DHT22;52812;48.960;9.108;2023-05-23T01:50:52;16.20;99.90
3086;DHT22;52812;48.960;9.108;2023-05-23T01:53:20;16.10;99.90
3086;DHT22;52812;48.960;9.108;2023-05-23T01:55:46;16.10;99.90
3086;DHT22;52812;48.960;9.108;2023-05-23T01:58:12;16.10;99.90
3086;DHT22;52812;48.960;9.108;2023-05-23T02:00:37;16.10;99.90
3086;DHT22;52812;48.960;9.108;2023-05-23T02:03:03;16.10;99.90
3086;DHT22;52812;48.960;9.108;2023-05-23T02:05:29;16.10;99.90
3086;DHT22;52812;48.960;9.108;2023-05-23T02:07:55;16.10;99.90
3086;DHT22;52812;48.960;9.108;2023-05-23T02:10:21;16.10;99.90
3086;DHT22;52812;48.960;9.108;2023-05-23T02:12:46;16.10;99.90
3086;DHT22;52812;48.960;9.108;2023-05-23T02:15:12;16.20;99.90
3086;DHT22;52812;48.960;9.108;2023-05-23T02:17:37;16.20;99.90
3086;DHT22;52812;48.960;9.108;2023-05-23T02:20:04;16.20;99.90
3086;DHT22;52812;48.960;9.108;2023-05-23T02:22:30;16.20;99.90
3086;DHT22;52812;48.960;9.108;2023-05-23T02:24:56;16.30;99.90
3086;DHT22;52812;48.960;9.108;2023-05-23T02:27:21;16.30;99.90
3086;DHT22;52812;48.960;9.108;2023-05-23T02:29:47;16.30;99.90
3086;DHT22;52812;48.960;9.108;2023-05-23T02:32:12;16.30;99.90
3086;DHT22;52812;48.960;9.108;2023-05-23T02:34:38;16.40;99.90
3086;DHT22;52812;48.960;9.108;2023-05-23T02:37:04;16.40;99.90
3086;DHT22;52812;48.960;9.108;2023-05-23T02:39:30;16.40;99.90
3086;DHT22;52812;48.960;9.108;2023-05-23T02:41:55;16.40;99.90
3086;DHT22;52812;48.960;9.108;2023-05-23T02:44:21;16.50;99.90
3086;DHT22;52812;48.960;9.108;2023-05-23T02:46:46;16.50;99.90
3086;DHT22;52812;48.960;9.108;2023-05-23T02:49:12;16.50;99.90
3086;DHT22;52812;48.960;9.108;2023-05-23T02:51:37;16.50;99.90
3086;DHT22;52812;48.960;9.108;2023-05-23T02:54:03;16.50;99.90
3086;DHT22;52812;48.960;9.108;2023-05-23T02:56:29;16.50;99.90
3086;DHT22;52812;48.960;9.108;2023-05-23T02:58:54;16.60;99.90
3086;DHT22;52812;48.960;9.108;2023-05-23T03:01:20;16.60;99.90
3086;DHT22;52812;48.960;9.108;2023-05-23T03:03:46;16.60;99.90
3086;DHT22;52812;48.960;9.108;2023-05-23T03:06:11;16.60;99.90
3086;DHT22;52812;48.960;9.108;2023-05-23T03:08:41;16.60;99.90
3086;DHT22;52812;48.960;9.108;2023-05-23T03:11:07;16.60;99.90
3086;DHT22;52812;48.960;9.108;2023-05-23T03:13:34;16.70;99.90
3086;DHT22;52812;48.960;9.108;2023-05-23T03:15:59;16.70;99.90
3086;DHT22;52812;48.960;9.108;2023-05-23T03:18:25;16.70;99.90
3086;DHT22;52812;48.960;9.108;2023-05-23T03:20:51;16.70;99.90
3086;DHT22;52812;48.960;9.108;2023-05-23T03:23:16;16.70;99.90
3086;DHT22;52812;48.960;9.108;2023-05-23T03:25:42;16.70;99.90
3086;DHT22;52812;48.960;9.108;2023-05-23T03:28:08;16.70;99.90
3086;DHT22;52812;48.960;9.108;2023-05-23T03:30:33;16.70;99.90
3086;DHT22;52812;48.960;9.108;2023-05-23T03:32:59;16.70;99.90
3086;DHT22;52812;48.960;9.108;2023-05-23T03:35:26;16.70;99.90
3086;DHT22;52812;48.960;9.108;2023-05-23T03:37:51;16.70;99.90
3086;DHT22;52812;48.960;9.108;2023-05-23T03:40:17;16.70;99.90
3086;DHT22;52812;48.960;9.108;2023-05-23T03:42:42;16.70;99.90
3086;DHT22;52812;48.960;9.108;2023-05-23T03:45:08;16.60;99.90
3086;DHT22;52812;48.960;9.108;2023-05-23T03:47:34;16.60;99.90
3086;DHT22;52812;48.960;9.108;2023-05-23T03:49:59;16.60;99.90
3086;DHT22;52812;48.960;9.108;2023-05-23T03:52:25;16.60;99.90
3086;DHT22;52812;48.960;9.108;2023-05-23T03:54:50;16.60;99.90
3086;DHT22;52812;48.960;9.108;2023-05-23T03:57:16;16.60;99.90
3086;DHT22;52812;48.960;9.108;2023-05-23T03:59:42;16.60;99.90
3086;DHT22;52812;48.960;9.108;2023-05-23T04:02:07;16.60;99.90
3086;DHT22;52812;48.960;9.108;2023-05-23T04:04:33;16.70;99.90
3086;DHT22;52812;48.960;9.108;2023-05-23T04:06:59;16.70;99.90
3086;DHT22;52812;48.960;9.108;2023-05-23T04:09:26;16.70;99.90
3086;DHT22;52812;48.960;9.108;2023-05-23T04:11:51;16.70;99.90
3086;DHT22;52812;48.960;9.108;2023-05-23T04:14:17;16.70;99.90
3086;DHT22;52812;48.960;9.108;2023-05-23T04:16:44;16.70;99.90
3086;DHT22;52812;48.960;9.108;2023-05-23T04:19:09;16.80;99.90
3086;DHT22;52812;48.960;9.108;2023-05-23T04:21:36;16.80;99.90
3086;DHT22;52812;48.960;9.108;2023-05-23T04:24:02;16.80;99.90
3086;DHT22;52812;48.960;9.108;2023-05-23T04:26:27;16.90;99.90
3086;DHT22;52812;48.960;9.108;2023-05-23T04:28:53;16.90;99.90
3086;DHT22;52812;48.960;9.108;2023-05-23T04:31:22;16.90;99.90
3086;DHT22;52812;48.960;9.108;2023-05-23T04:33:48;16.90;99.90
3086;DHT22;52812;48.960;9.108;2023-05-23T04:36:14;17.00;99.90
3086;DHT22;52812;48.960;9.108;2023-05-23T04:38:39;17.00;99.90
3086;DHT22;52812;48.960;9.108;2023-05-23T04:41:06;17.10;99.90
3086;DHT22;52812;48.960;9.108;2023-05-23T04:43:34;17.20;99.90
3086;DHT22;52812;48.960;9.108;2023-05-23T04:46:02;17.20;99.90
3086;DHT22;52812;48.960;9.108;2023-05-23T04:48:28;17.20;99.90
3086;DHT22;52812;48.960;9.108;2023-05-23T04:50:54;17.20;99.90
3086;DHT22;52812;48.960;9.108;2023-05-23T04:53:21;17.20;99.90
3086;DHT22;52812;48.960;9.108;2023-05-23T04:55:46;17.20;99.90
3086;DHT22;52812;48.960;9.108;2023-05-23T04:58:12;17.30;99.90
3086;DHT22;52812;48.960;9.108;2023-05-23T05:00:38;17.30;99.90
3086;DHT22;52812;48.960;9.108;2023-05-23T05:03:03;17.40;99.90
3086;DHT22;52812;48.960;9.108;2023-05-23T05:05:29;17.40;99.90
3086;DHT22;52812;48.960;9.108;2023-05-23T05:07:55;17.40;99.90
3086;DHT22;52812;48.960;9.108;2023-05-23T05:10:20;17.40;99.90
3086;DHT22;52812;48.960;9.108;2023-05-23T05:12:47;17.50;99.90
3086;DHT22;52812;48.960;9.108;2023-05-23T05:15:15;17.50;99.90
3086;DHT22;52812;48.960;9.108;2023-05-23T05:17:42;17.60;99.90
3086;DHT22;52812;48.960;9.108;2023-05-23T05:20:08;17.70;99.90
3086;DHT22;52812;48.960;9.108;2023-05-23T05:22:35;17.80;99.90
3086;DHT22;52812;48.960;9.108;2023-05-23T05:25:01;18.00;99.90
3086;DHT22;52812;48.960;9.108;2023-05-23T05:27:28;18.10;99.90
3086;DHT22;52812;48.960;9.108;2023-05-23T05:29:53;18.30;99.90
3086;DHT22;52812;48.960;9.108;2023-05-23T05:32:22;18.50;99.90
3086;DHT22;52812;48.960;9.108;2023-05-23T05:34:48;18.60;99.90
3086;DHT22;52812;48.960;9.108;2023-05-23T05:37:15;18.50;99.90
3086;DHT22;52812;48.960;9.108;2023-05-23T05:39:41;18.40;99.90
3086;DHT22;52812;48.960;9.108;2023-05-23T05:42:06;18.40;99.90
3086;DHT22;52812;48.960;9.108;2023-05-23T05:44:32;18.40;99.90
3086;DHT22;52812;48.960;9.108;2023-05-23T05:46:57;18.50;99.90
3086;DHT22;52812;48.960;9.108;2023-05-23T05:49:23;18.50;99.90
3086;DHT22;52812;48.960;9.108;2023-05-23T05:51:48;18.50;99.90
3086;DHT22;52812;48.960;9.108;2023-05-23T05:54:14;18.70;99.90
3086;DHT22;52812;48.960;9.108;2023-05-23T05:56:40;18.80;99.90
3086;DHT22;52812;48.960;9.108;2023-05-23T05:59:06;18.90;99.90
3086;DHT22;52812;48.960;9.108;2023-05-23T06:01:32;19.10;99.90
3086;DHT22;52812;48.960;9.108;2023-05-23T06:03:59;19.10;99.90
3086;DHT22;52812;48.960;9.108;2023-05-23T06:06:25;19.00;99.90
3086;DHT22;52812;48.960;9.108;2023-05-23T06:08:50;19.00;99.90
3086;DHT22;52812;48.960;9.108;2023-05-23T06:11:16;19.00;99.90
3086;DHT22;52812;48.960;9.108;2023-05-23T06:13:41;18.80;99.90
3086;DHT22;52812;48.960;9.108;2023-05-23T06:16:07;18.70;99.90
3086;DHT22;52812;48.960;9.108;2023-05-23T06:18:33;18.70;99.90
3086;DHT22;52812;48.960;9.108;2023-05-23T06:20:59;18.60;99.90
3086;DHT22;52812;48.960;9.108;2023-05-23T06:23:24;18.50;99.90
3086;DHT22;52812;48.960;9.108;2023-05-23T06:25:50;18.50;99.90
3086;DHT22;52812;48.960;9.108;2023-05-23T06:28:15;18.40;99.90
3086;DHT22;52812;48.960;9.108;2023-05-23T06:30:41;18.30;99.90
3086;DHT22;52812;48.960;9.108;2023-05-23T06:33:06;18.10;99.90
3086;DHT22;52812;48.960;9.108;2023-05-23T06:35:32;18.20;99.90
3086;DHT22;52812;48.960;9.108;2023-05-23T06:37:58;18.10;99.90
3086;DHT22;52812;48.960;9.108;2023-05-23T06:40:23;17.90;99.90
3086;DHT22;52812;48.960;9.108;2023-05-23T06:42:49;17.80;99.90
3086;DHT22;52812;48.960;9.108;2023-05-23T06:45:14;17.70;99.90
3086;DHT22;52812;48.960;9.108;2023-05-23T06:47:40;17.60;99.90
3086;DHT22;52812;48.960;9.108;2023-05-23T06:50:08;17.60;99.90
3086;DHT22;52812;48.960;9.108;2023-05-23T06:52:34;17.50;99.90
3086;DHT22;52812;48.960;9.108;2023-05-23T06:54:59;17.50;99.90
3086;DHT22;52812;48.960;9.108;2023-05-23T06:57:25;17.50;99.90
3086;DHT22;52812;48.960;9.108;2023-05-23T06:59:50;17.60;99.90
3086;DHT22;52812;48.960;9.108;2023-05-23T07:02:16;17.80;99.90
3086;DHT22;52812;48.960;9.108;2023-05-23T07:04:42;17.70;99.90
3086;DHT22;52812;48.960;9.108;2023-05-23T07:07:07;17.80;99.90
3086;DHT22;52812;48.960;9.108;2023-05-23T07:09:33;17.90;99.90
3086;DHT22;52812;48.960;9.108;2023-05-23T07:11:58;17.70;99.90
3086;DHT22;52812;48.960;9.108;2023-05-23T07:14:24;17.70;99.90
3086;DHT22;52812;48.960;9.108;2023-05-23T07:16:49;17.70;99.90
3086;DHT22;52812;48.960;9.108;2023-05-23T07:19:15;17.90;99.90
3086;DHT22;52812;48.960;9.108;2023-05-23T07:21:40;17.90;99.90
3086;DHT22;52812;48.960;9.108;2023-05-23T07:24:06;17.90;99.90
3086;DHT22;52812;48.960;9.108;2023-05-23T07:26:32;17.80;99.90
3086;DHT22;52812;48.960;9.108;2023-05-23T07:28:57;17.90;99.90
3086;DHT22;52812;48.960;9.108;2023-05-23T07:31:23;18.00;99.90
3086;DHT22;52812;48.960;9.108;2023-05-23T07:33:48;18.20;99.90
3086;DHT22;52812;48.960;9.108;2023-05-23T07:36:14;18.40;99.90
3086;DHT22;52812;48.960;9.108;2023-05-23T07:38:40;18.40;99.90
3086;DHT22;52812;48.960;9.108;2023-05-23T07:41:06;18.50;99.90
3086;DHT22;52812;48.960;9.108;2023-05-23T07:43:31;18.70;99.90
3086;DHT22;52812;48.960;9.108;2023-05-23T07:45:57;18.90;99.90
3086;DHT22;52812;48.960;9.108;2023-05-23T07:48:22;18.70;99.90
3086;DHT22;52812;48.960;9.108;2023-05-23T07:50:48;18.50;99.90
3086;DHT22;52812;48.960;9.108;2023-05-23T07:53:14;18.60;99.90
3086;DHT22;52812;48.960;9.108;2023-05-23T07:55:40;18.80;99.90
3086;DHT22;52812;48.960;9.108;2023-05-23T07:58:05;18.60;99.90
3086;DHT22;52812;48.960;9.108;2023-05-23T08:00:31;18.60;99.90
3086;DHT22;52812;48.960;9.108;2023-05-23T08:02:57;18.40;99.90
3086;DHT22;52812;48.960;9.108;2023-05-23T08:05:22;18.40;99.90
3086;DHT22;52812;48.960;9.108;2023-05-23T08:07:48;18.20;99.90
3086;DHT22;52812;48.960;9.108;2023-05-23T08:10:14;18.00;99.90
3086;DHT22;52812;48.960;9.108;2023-05-23T08:12:39;18.00;99.90
3086;DHT22;52812;48.960;9.108;2023-05-23T08:15:05;18.10;99.90
3086;DHT22;52812;48.960;9.108;2023-05-23T08:17:32;18.00;99.90
3086;DHT22;52812;48.960;9.108;2023-05-23T08:19:57;18.10;99.90
3086;DHT22;52812;48.960;9.108;2023-05-23T08:22:25;18.30;99.90
3086;DHT22;52812;48.960;9.108;2023-05-23T08:24:50;18.40;99.90
3086;DHT22;52812;48.960;9.108;2023-05-23T08:27:16;18.60;99.90
3086;DHT22;52812;48.960;9.108;2023-05-23T08:29:41;18.50;99.90
3086;DHT22;52812;48.960;9.108;2023-05-23T08:32:08;18.30;99.90
3086;DHT22;52812;48.960;9.108;2023-05-23T08:34:34;18.60;99.90
3086;DHT22;52812;48.960;9.108;2023-05-23T08:36:59;18.60;99.90
3086;DHT22;52812;48.960;9.108;2023-05-23T08:39:25;18.60;99.90
3086;DHT22;52812;48.960;9.108;2023-05-23T08:41:51;18.30;99.90
3086;DHT22;52812;48.960;9.108;2023-05-23T08:44:16;18.30;99.90
3086;DHT22;52812;48.960;9.108;2023-05-23T08:46:44;18.40;99.90
3086;DHT22;52812;48.960;9.108;2023-05-23T08:49:10;18.30;99.90
3086;DHT22;52812;48.960;9.108;2023-05-23T08:51:42;18.10;99.90
3086;DHT22;52812;48.960;9.108;2023-05-23T08:54:07;18.10;99.90
3086;DHT22;52812;48.960;9.108;2023-05-23T08:56:35;18.10;99.90
3086;DHT22;52812;48.960;9.108;2023-05-23T08:59:01;18.00;99.90
3086;DHT22;52812;48.960;9.108;2023-05-23T09:01:28;18.20;99.90
3086;DHT22;52812;48.960;9.108;2023-05-23T09:03:54;18.30;99.90
3086;DHT22;52812;48.960;9.108;2023-05-23T09:06:21;18.70;99.90
3086;DHT22;52812;48.960;9.108;2023-05-23T09:08:46;18.90;99.90
3086;DHT22;52812;48.960;9.108;2023-05-23T09:11:12;18.80;99.90
3086;DHT22;52812;48.960;9.108;2023-05-23T09:13:39;18.60;99.90
3086;DHT22;52812;48.960;9.108;2023-05-23T09:16:10;18.40;99.90
3086;DHT22;52812;48.960;9.108;2023-05-23T09:18:38;18.50;99.90
3086;DHT22;52812;48.960;9.108;2023-05-23T09:21:04;18.60;99.90
3086;DHT22;52812;48.960;9.108;2023-05-23T09:23:34;18.60;99.90
3086;DHT22;52812;48.960;9.108;2023-05-23T09:26:03;18.50;99.90
3086;DHT22;52812;48.960;9.108;2023-05-23T09:28:30;18.40;99.90
3086;DHT22;52812;48.960;9.108;2023-05-23T09:30:58;18.20;99.90
3086;DHT22;52812;48.960;9.108;2023-05-23T09:33:38;18.10;99.90
3086;DHT22;52812;48.960;9.108;2023-05-23T09:36:05;18.10;99.90
3086;DHT22;52812;48.960;9.108;2023-05-23T09:38:31;18.10;99.90
3086;DHT22;52812;48.960;9.108;2023-05-23T09:40:58;18.00;99.90
3086;DHT22;52812;48.960;9.108;2023-05-23T09:43:23;18.10;99.90
3086;DHT22;52812;48.960;9.108;2023-05-23T09:45:49;18.10;99.90
3086;DHT22;52812;48.960;9.108;2023-05-23T09:48:15;18.20;99.90
3086;DHT22;52812;48.960;9.108;2023-05-23T09:50:41;18.40;99.90
3086;DHT22;52812;48.960;9.108;2023-05-23T09:53:09;18.50;99.90
3086;DHT22;52812;48.960;9.108;2023-05-23T09:55:35;18.90;99.90
3086;DHT22;52812;48.960;9.108;2023-05-23T09:58:02;19.10;99.90
3086;DHT22;52812;48.960;9.108;2023-05-23T10:00:28;19.30;99.90
3086;DHT22;52812;48.960;9.108;2023-05-23T10:05:43;19.90;99.90
3086;DHT22;52812;48.960;9.108;2023-05-23T10:08:13;19.90;99.90
3086;DHT22;52812;48.960;9.108;2023-05-23T10:13:26;20.00;99.90
3086;DHT22;52812;48.960;9.108;2023-05-23T10:16:03;20.00;99.90
3086;DHT22;52812;48.960;9.108;2023-05-23T10:18:35;19.90;99.90
3086;DHT22;52812;48.960;9.108;2023-05-23T10:21:06;19.90;99.90
3086;DHT22;52812;48.960;9.108;2023-05-23T10:23:33;19.80;99.90
3086;DHT22;52812;48.960;9.108;2023-05-23T10:25:58;19.80;99.90
3086;DHT22;52812;48.960;9.108;2023-05-23T10:28:24;19.90;99.90
3086;DHT22;52812;48.960;9.108;2023-05-23T10:30:51;20.00;99.90
3086;DHT22;52812;48.960;9.108;2023-05-23T10:33:17;20.40;99.90
3086;DHT22;52812;48.960;9.108;2023-05-23T10:36:07;20.60;99.90
3086;DHT22;52812;48.960;9.108;2023-05-23T10:38:48;20.30;99.90
3086;DHT22;52812;48.960;9.108;2023-05-23T10:41:22;20.20;99.90
3086;DHT22;52812;48.960;9.108;2023-05-23T10:43:52;20.00;99.90
3086;DHT22;52812;48.960;9.108;2023-05-23T10:46:20;19.80;99.90
3086;DHT22;52812;48.960;9.108;2023-05-23T10:48:53;19.70;99.90
3086;DHT22;52812;48.960;9.108;2023-05-23T10:51:21;20.10;99.90
3086;DHT22;52812;48.960;9.108;2023-05-23T10:53:52;20.10;99.90
3086;DHT22;52812;48.960;9.108;2023-05-23T10:56:20;20.00;99.90
3086;DHT22;52812;48.960;9.108;2023-05-23T10:58:54;20.20;99.90
3086;DHT22;52812;48.960;9.108;2023-05-23T11:01:20;20.50;99.90
3086;DHT22;52812;48.960;9.108;2023-05-23T11:06:40;19.80;99.90
3086;DHT22;52812;48.960;9.108;2023-05-23T11:09:17;19.90;99.90
3086;DHT22;52812;48.960;9.108;2023-05-23T11:14:17;20.20;99.90
3086;DHT22;52812;48.960;9.108;2023-05-23T11:16:44;20.30;99.90
3086;DHT22;52812;48.960;9.108;2023-05-23T11:21:43;20.80;99.90
3086;DHT22;52812;48.960;9.108;2023-05-23T11:24:09;20.90;99.90
3086;DHT22;52812;48.960;9.108;2023-05-23T11:26:35;20.90;99.90
3086;DHT22;52812;48.960;9.108;2023-05-23T11:29:01;21.10;99.90
3086;DHT22;52812;48.960;9.108;2023-05-23T11:31:29;21.20;99.90
3086;DHT22;52812;48.960;9.108;2023-05-23T11:33:55;21.50;99.90
3086;DHT22;52812;48.960;9.108;2023-05-23T11:36:21;21.50;99.90
3086;DHT22;52812;48.960;9.108;2023-05-23T11:38:49;21.00;99.90
3086;DHT22;52812;48.960;9.108;2023-05-23T11:41:17;20.80;99.90
3086;DHT22;52812;48.960;9.108;2023-05-23T11:43:52;20.80;99.90
3086;DHT22;52812;48.960;9.108;2023-05-23T11:46:18;21.00;99.90
3086;DHT22;52812;48.960;9.108;2023-05-23T11:48:47;20.90;99.90
3086;DHT22;52812;48.960;9.108;2023-05-23T11:51:13;20.80;99.90
3086;DHT22;52812;48.960;9.108;2023-05-23T11:53:39;20.80;99.90
3086;DHT22;52812;48.960;9.108;2023-05-23T11:56:05;20.80;99.90
3086;DHT22;52812;48.960;9.108;2023-05-23T11:58:35;20.60;99.90
3086;DHT22;52812;48.960;9.108;2023-05-23T12:01:03;20.80;99.90
3086;DHT22;52812;48.960;9.108;2023-05-23T12:03:29;20.80;99.90
3086;DHT22;52812;48.960;9.108;2023-05-23T12:05:56;20.60;99.90
3086;DHT22;52812;48.960;9.108;2023-05-23T12:08:21;20.60;99.90
3086;DHT22;52812;48.960;9.108;2023-05-23T12:10:49;20.70;99.90
3086;DHT22;52812;48.960;9.108;2023-05-23T12:13:15;20.60;99.90
3086;DHT22;52812;48.960;9.108;2023-05-23T12:15:41;21.00;99.90
3086;DHT22;52812;48.960;9.108;2023-05-23T12:18:06;21.60;99.90
3086;DHT22;52812;48.960;9.108;2023-05-23T12:20:32;21.40;99.90
3086;DHT22;52812;48.960;9.108;2023-05-23T12:23:03;21.30;99.90
3086;DHT22;52812;48.960;9.108;2023-05-23T12:25:29;21.00;99.90
3086;DHT22;52812;48.960;9.108;2023-05-23T12:28:01;21.20;99.90
3086;DHT22;52812;48.960;9.108;2023-05-23T12:30:28;21.40;99.90
3086;DHT22;52812;48.960;9.108;2023-05-23T12:32:53;21.10;99.90
3086;DHT22;52812;48.960;9.108;2023-05-23T12:35:19;20.80;99.90
3086;DHT22;52812;48.960;9.108;2023-05-23T12:37:45;20.20;99.90
3086;DHT22;52812;48.960;9.108;2023-05-23T12:40:12;19.90;99.90
3086;DHT22;52812;48.960;9.108;2023-05-23T12:42:49;19.70;99.90
3086;DHT22;52812;48.960;9.108;2023-05-23T12:45:19;19.60;99.90
3086;DHT22;52812;48.960;9.108;2023-05-23T12:47:45;19.60;99.90
3086;DHT22;52812;48.960;9.108;2023-05-23T12:50:11;19.60;99.90
3086;DHT22;52812;48.960;9.108;2023-05-23T12:52:36;19.70;99.90
3086;DHT22;52812;48.960;9.108;2023-05-23T12:55:02;19.90;99.90
3086;DHT22;52812;48.960;9.108;2023-05-23T12:57:33;19.90;99.90
3086;DHT22;52812;48.960;9.108;2023-05-23T12:59:59;20.20;99.90
3086;DHT22;52812;48.960;9.108;2023-05-23T13:02:24;20.10;99.90
3086;DHT22;52812;48.960;9.108;2023-05-23T13:04:51;20.00;99.90
3086;DHT22;52812;48.960;9.108;2023-05-23T13:07:16;19.80;99.90
3086;DHT22;52812;48.960;9.108;2023-05-23T13:09:42;20.00;99.90
3086;DHT22;52812;48.960;9.108;2023-05-23T13:12:08;20.10;99.90
3086;DHT22;52812;48.960;9.108;2023-05-23T13:14:33;20.20;99.90
3086;DHT22;52812;48.960;9.108;2023-05-23T13:16:59;20.10;99.90
3086;DHT22;52812;48.960;9.108;2023-05-23T13:19:24;20.30;99.90
3086;DHT22;52812;48.960;9.108;2023-05-23T13:21:50;20.20;99.90
3086;DHT22;52812;48.960;9.108;2023-05-23T13:24:16;20.30;99.90
3086;DHT22;52812;48.960;9.108;2023-05-23T13:26:42;20.50;99.90
3086;DHT22;52812;48.960;9.108;2023-05-23T13:29:07;20.90;99.90
3086;DHT22;52812;48.960;9.108;2023-05-23T13:31:33;20.90;99.90
3086;DHT22;52812;48.960;9.108;2023-05-23T13:33:58;20.80;99.90
3086;DHT22;52812;48.960;9.108;2023-05-23T13:36:24;20.90;99.90
3086;DHT22;52812;48.960;9.108;2023-05-23T13:38:50;20.80;99.90
3086;DHT22;52812;48.960;9.108;2023-05-23T13:41:16;20.80;99.90
3086;DHT22;52812;48.960;9.108;2023-05-23T13:43:41;20.80;99.90
3086;DHT22;52812;48.960;9.108;2023-05-23T13:46:07;21.10;99.90
3086;DHT22;52812;48.960;9.108;2023-05-23T13:48:32;21.00;99.90
3086;DHT22;52812;48.960;9.108;2023-05-23T13:50:58;20.90;99.90
3086;DHT22;52812;48.960;9.108;2023-05-23T13:53:23;21.00;99.90
3086;DHT22;52812;48.960;9.108;2023-05-23T13:55:49;21.20;99.90
3086;DHT22;52812;48.960;9.108;2023-05-23T13:58:14;21.30;99.90
3086;DHT22;52812;48.960;9.108;2023-05-23T14:00:40;21.40;99.90
3086;DHT22;52812;48.960;9.108;2023-05-23T14:03:06;21.20;99.90
3086;DHT22;52812;48.960;9.108;2023-05-23T14:05:32;21.20;99.90
3086;DHT22;52812;48.960;9.108;2023-05-23T14:07:58;20.80;99.90
3086;DHT22;52812;48.960;9.108;2023-05-23T14:10:23;21.00;99.90
3086;DHT22;52812;48.960;9.108;2023-05-23T14:12:49;21.10;99.90
3086;DHT22;52812;48.960;9.108;2023-05-23T14:15:15;21.10;99.90
3086;DHT22;52812;48.960;9.108;2023-05-23T14:17:40;20.80;99.90
3086;DHT22;52812;48.960;9.108;2023-05-23T14:20:06;20.70;99.90
3086;DHT22;52812;48.960;9.108;2023-05-23T14:22:32;20.70;99.90
3086;DHT22;52812;48.960;9.108;2023-05-23T14:24:58;20.70;99.90
3086;DHT22;52812;48.960;9.108;2023-05-23T14:27:25;20.60;99.90
3086;DHT22;52812;48.960;9.108;2023-05-23T14:29:51;20.60;99.90
3086;DHT22;52812;48.960;9.108;2023-05-23T14:32:17;20.50;99.90
3086;DHT22;52812;48.960;9.108;2023-05-23T14:34:42;20.40;99.90
3086;DHT22;52812;48.960;9.108;2023-05-23T14:37:08;20.20;99.90
3086;DHT22;52812;48.960;9.108;2023-05-23T14:39:33;20.10;99.90
3086;DHT22;52812;48.960;9.108;2023-05-23T14:42:00;20.10;99.90
3086;DHT22;52812;48.960;9.108;2023-05-23T14:44:26;20.30;99.90
3086;DHT22;52812;48.960;9.108;2023-05-23T14:46:52;20.50;99.90
3086;DHT22;52812;48.960;9.108;2023-05-23T14:49:18;20.60;99.90
3086;DHT22;52812;48.960;9.108;2023-05-23T14:51:44;20.70;99.90
3086;DHT22;52812;48.960;9.108;2023-05-23T14:54:09;20.80;99.90
3086;DHT22;52812;48.960;9.108;2023-05-23T14:56:35;20.90;99.90
3086;DHT22;52812;48.960;9.108;2023-05-23T14:59:03;20.60;99.90
3086;DHT22;52812;48.960;9.108;2023-05-23T15:01:29;20.50;99.90
3086;DHT22;52812;48.960;9.108;2023-05-23T15:03:55;20.40;99.90
3086;DHT22;52812;48.960;9.108;2023-05-23T15:06:21;20.50;99.90
3086;DHT22;52812;48.960;9.108;2023-05-23T15:08:46;20.50;99.90
3086;DHT22;52812;48.960;9.108;2023-05-23T15:11:12;20.50;99.90
3086;DHT22;52812;48.960;9.108;2023-05-23T15:13:37;20.60;99.90
3086;DHT22;52812;48.960;9.108;2023-05-23T15:16:03;20.50;99.90
3086;DHT22;52812;48.960;9.108;2023-05-23T15:18:28;20.40;99.90
3086;DHT22;52812;48.960;9.108;2023-05-23T15:20:54;20.40;99.90
3086;DHT22;52812;48.960;9.108;2023-05-23T15:23:19;20.50;99.90
3086;DHT22;52812;48.960;9.108;2023-05-23T15:25:45;20.70;99.90
3086;DHT22;52812;48.960;9.108;2023-05-23T15:28:11;20.70;99.90
3086;DHT22;52812;48.960;9.108;2023-05-23T15:30:36;20.70;99.90
3086;DHT22;52812;48.960;9.108;2023-05-23T15:33:05;20.50;99.90
3086;DHT22;52812;48.960;9.108;2023-05-23T15:35:32;20.60;99.90
3086;DHT22;52812;48.960;9.108;2023-05-23T15:37:58;20.40;99.90
3086;DHT22;52812;48.960;9.108;2023-05-23T15:40:23;20.30;99.90
3086;DHT22;52812;48.960;9.108;2023-05-23T15:42:49;20.30;99.90
3086;DHT22;52812;48.960;9.108;2023-05-23T15:45:15;20.20;99.90
3086;DHT22;52812;48.960;9.108;2023-05-23T15:47:41;20.40;99.90
3086;DHT22;52812;48.960;9.108;2023-05-23T15:50:06;20.30;99.90
3086;DHT22;52812;48.960;9.108;2023-05-23T15:52:32;20.30;99.90
3086;DHT22;52812;48.960;9.108;2023-05-23T15:54:58;20.40;99.90
3086;DHT22;52812;48.960;9.108;2023-05-23T15:57:23;20.20;99.90
3086;DHT22;52812;48.960;9.108;2023-05-23T15:59:49;20.10;99.90
3086;DHT22;52812;48.960;9.108;2023-05-23T16:02:14;19.90;99.90
3086;DHT22;52812;48.960;9.108;2023-05-23T16:04:43;19.90;99.90